• Join FlightAware (Why Join?)
  • Login
  • US Flag 
12:28PM EDT


 

Airport Tracker/Info


-or-


 

Live Flight TrackerFlight Track Log ✈ EJA583 ✈ 14-Jul-2013 ✈ KAPA - KEGE

Flight Track Log - Related Links

Times and Time Zones

All times are in EDT time to prevent confusion due to time zone crossing. See the EJA583 flight status page for this flight to view local times or setup timezone preferences in your user account.

Time Position Orientation Groundspeed Altitude Reporting Facility
EDT Latitude Longitude Course Direction KTS MPH feet Rate Location/Type
11:40AM 39.6000 -104.8500 303° West 175 201 7,000  Level Denver TRACON
11:41AM 39.6333 -104.9167 303° West 260 299 8,000 960 Climbing Denver TRACON
11:42AM 39.6667 -105.0167 293° West 287 330 9,000 1,740 Climbing Denver TRACON
11:43AM 39.7000 -105.1000 297° West 287 330 11,500 2,640 Climbing Denver TRACON
11:44AM 39.7500 -105.1833 308° West 290 334 14,300 2,700 Climbing Denver TRACON
11:45AM 39.7833 -105.2667 298° West 291 335 17,000 2,220 Climbing Denver TRACON
11:46AM 39.7933 -105.3017 290° West 289 333 17,700 600 Climbing Denver Center
11:47AM 39.8567 -105.4267 303° West 346 398 18,000 120 Climbing Denver Center
11:48AM 39.9139 -105.5569 300° West 387 445 18,000  Level Denver Center
11:49AM 39.9658 -105.6839 298° West 398 458 18,000  Level Denver Center
11:50AM 39.9611 -105.7969 267° West 371 427 18,000  Level Denver Center
11:51AM 39.9683 -105.9464 274° West 340 391 18,000 -60 Level Denver Center
11:52AM 39.9736 -106.0706 273° West 340 391 17,900 -480 Descending Denver Center
11:53AM 39.9258 -106.1906 243° Southwest 367 422 17,100 -960 Descending Denver Center
11:54AM 39.8744 -106.3072 240° Southwest 374 430 16,000 -540 Descending Denver Center
11:55AM 39.8292 -106.4106 240° Southwest 343 395 16,000 -480 Level Denver Center
11:56AM 39.7950 -106.4883 240° Southwest 318 366 15,100 -1,620 Descending Denver Center
11:57AM 39.7353 -106.6161 239° Southwest 310 357 12,700 -2,100 Descending Denver Center
11:58AM 39.6853 -106.6936 230° Southwest 286 329 10,800 -1,740 Descending Denver Center
11:59AM 39.6575 -106.7733 246° West 242 278 9,100 -1,500 Descending Denver Center
12:00PM 39.6506 -106.8458 263° West 216 249 7,800 -1,260 Descending Denver Center
12:01PM 39.6444 -106.8989 262° West 173 199 6,500 -1,260 Descending Denver Center